Terminal Aerodrome Forecast
Issued by NWS

Home | Current Version | Previous Version | Text Only | Print | Product List | Glossary On
Versions: 1 2 3 4 5 6 7 8 9 10 11 12 13 14 15 16 17 18 19 20 21 22 23 24 25 26 27 28 29 30 31 32 33 34
727
FTUS43 KDLH 271246 AAB
TAFHYR
TAF AMD
KHYR 271246Z 2713/2812 00000KT 6SM BR BKN003 OVC045
     FM271600 02004KT P6SM BKN008
     FM271700 02004KT P6SM BKN015
     FM272000 03007KT P6SM BKN035
     FM280100 05003KT 6SM BR SCT130=

USA.gov is the U.S. government's official web portal to all federal, state and local government web resources and services.